Time;durP1;ratioP1;P1;durP2;ratioP2;P2;SDS_P1;SDS_P2;PMS_P1;PMS_P2;Temp;Humidity;BMP_temperature;BMP_pressure;BME280_temperature;BME280_humidity;BME280_pressure;Samples;Min_cycle;Max_cycle;Signal;HPM_P1;HPM_P2
2023/04/15 00:00:50;;;;;;;7.28;5.75;;;11.80;99.90;;;;;;5011250;28;20205;-65
2023/04/15 00:03:16;;;;;;;9.82;5.38;;;11.80;99.90;;;;;;5021088;28;20206;-65
2023/04/15 00:05:42;;;;;;;7.55;5.07;;;11.80;99.90;;;;;;5021265;28;20544;-65
2023/04/15 00:08:08;;;;;;;8.13;5.88;;;11.80;99.90;;;;;;5006096;28;20188;-65
2023/04/15 00:10:33;;;;;;;7.35;5.72;;;11.80;99.90;;;;;;5042147;28;20183;-64
2023/04/15 00:12:59;;;;;;;5.88;5.03;;;11.80;99.90;;;;;;5025421;28;20613;-65
2023/04/15 00:15:25;;;;;;;6.93;4.72;;;11.80;99.90;;;;;;5020274;28;20186;-65
2023/04/15 00:17:51;;;;;;;5.88;4.78;;;11.70;99.90;;;;;;5009833;28;20309;-65
2023/04/15 00:20:17;;;;;;;5.35;4.85;;;11.70;99.90;;;;;;5008573;28;20204;-64
2023/04/15 00:22:43;;;;;;;6.38;4.97;;;11.60;99.90;;;;;;5006795;28;20208;-65
2023/04/15 00:25:08;;;;;;;4.72;4.32;;;11.70;99.90;;;;;;5024734;28;20195;-65
2023/04/15 00:27:34;;;;;;;5.97;4.90;;;11.70;99.90;;;;;;5014114;28;20195;-65
2023/04/15 00:30:00;;;;;;;5.82;5.05;;;11.70;99.90;;;;;;5026631;28;20190;-65
2023/04/15 00:32:25;;;;;;;4.97;4.53;;;11.60;99.90;;;;;;5025474;28;20192;-65
2023/04/15 00:34:51;;;;;;;5.72;4.65;;;11.60;99.90;;;;;;5022364;28;20264;-65
2023/04/15 00:37:17;;;;;;;6.00;4.10;;;11.50;99.90;;;;;;5031488;28;20236;-65
2023/04/15 00:39:42;;;;;;;5.40;4.90;;;11.50;99.90;;;;;;5023129;28;20199;-65
2023/04/15 00:42:09;;;;;;;5.72;5.07;;;11.40;99.90;;;;;;5026811;28;20187;-65
2023/04/15 00:44:35;;;;;;;5.63;4.47;;;11.40;99.90;;;;;;5020078;28;20190;-64
2023/04/15 00:47:01;;;;;;;5.85;4.50;;;11.50;99.90;;;;;;5023188;28;20195;-65
2023/04/15 00:49:28;;;;;;;7.43;5.25;;;11.40;99.90;;;;;;5030020;28;20194;-65
2023/04/15 00:51:54;;;;;;;6.35;5.72;;;11.40;99.90;;;;;;5012072;28;20184;-65
2023/04/15 00:54:21;;;;;;;6.90;5.13;;;11.30;99.90;;;;;;5016806;28;20198;-65
2023/04/15 00:56:47;;;;;;;6.00;4.05;;;11.30;99.90;;;;;;5012720;28;20192;-64
2023/04/15 00:59:13;;;;;;;6.63;4.90;;;11.20;99.90;;;;;;5028364;28;20186;-64
2023/04/15 01:01:39;;;;;;;5.10;4.60;;;11.20;99.90;;;;;;5007952;28;20176;-64
2023/04/15 01:04:05;;;;;;;9.35;5.13;;;11.30;99.90;;;;;;5020946;28;20206;-64
2023/04/15 01:06:32;;;;;;;5.78;4.65;;;11.40;99.90;;;;;;5022471;28;20712;-64
2023/04/15 01:08:59;;;;;;;4.00;3.67;;;11.40;99.90;;;;;;5030668;28;20192;-64
2023/04/15 01:11:25;;;;;;;6.65;4.35;;;11.30;99.90;;;;;;5017383;28;20235;-64
2023/04/15 01:13:51;;;;;;;6.47;4.18;;;11.20;99.90;;;;;;5010322;28;20200;-64
2023/04/15 01:16:18;;;;;;;4.38;3.92;;;11.10;99.90;;;;;;5008754;28;20762;-64
2023/04/15 01:18:45;;;;;;;5.43;3.92;;;11.00;99.90;;;;;;5002213;28;20628;-64
2023/04/15 01:21:11;;;;;;;4.93;4.45;;;11.10;99.90;;;;;;5021597;28;20222;-65
2023/04/15 01:23:37;;;;;;;4.75;3.72;;;11.10;99.90;;;;;;5013530;28;20630;-64
2023/04/15 01:26:03;;;;;;;6.75;4.45;;;11.10;99.90;;;;;;5019828;28;20744;-64
2023/04/15 01:28:30;;;;;;;7.93;4.43;;;11.10;99.90;;;;;;5022117;28;20174;-64
2023/04/15 01:31:13;;;;;;;4.75;4.00;;;11.10;99.90;;;;;;5030246;28;20178;-64
2023/04/15 01:33:41;;;;;;;4.47;3.63;;;11.20;99.90;;;;;;5018964;28;20655;-64
2023/04/15 01:36:08;;;;;;;4.70;4.30;;;11.20;99.90;;;;;;5013431;28;20199;-66
2023/04/15 01:38:35;;;;;;;6.82;4.35;;;11.20;99.90;;;;;;5026820;28;20174;-64
2023/04/15 01:41:03;;;;;;;4.80;4.20;;;11.20;99.90;;;;;;5020706;28;20188;-64
2023/04/15 01:43:28;;;;;;;5.97;3.95;;;11.10;99.90;;;;;;5025474;28;20207;-64
2023/04/15 01:45:55;;;;;;;4.88;4.30;;;11.00;99.90;;;;;;5016918;28;20203;-65
2023/04/15 01:48:21;;;;;;;6.47;5.15;;;11.20;99.90;;;;;;5009371;28;20233;-64
2023/04/15 01:50:47;;;;;;;5.97;4.28;;;11.10;99.90;;;;;;5024466;28;20183;-64
2023/04/15 01:53:14;;;;;;;5.57;4.15;;;11.10;99.90;;;;;;5007187;28;20188;-65
2023/04/15 01:55:40;;;;;;;7.95;5.78;;;11.10;99.90;;;;;;5017874;28;20190;-64
2023/04/15 01:58:05;;;;;;;8.15;4.82;;;11.10;99.90;;;;;;5010363;28;20191;-65
2023/04/15 02:00:31;;;;;;;5.75;5.15;;;11.10;99.90;;;;;;5004999;28;20196;-64
2023/04/15 02:02:58;;;;;;;6.50;4.90;;;11.10;99.90;;;;;;5048051;28;20237;-64
2023/04/15 02:05:24;;;;;;;6.80;5.40;;;11.10;99.90;;;;;;5022709;28;20656;-64
2023/04/15 02:07:50;;;;;;;7.93;5.63;;;11.00;99.90;;;;;;5016238;28;20184;-64
2023/04/15 02:10:15;;;;;;;7.22;5.15;;;11.00;99.90;;;;;;5009242;28;20188;-64
2023/04/15 02:12:42;;;;;;;8.52;5.57;;;11.00;99.90;;;;;;5015087;28;20199;-64
2023/04/15 02:15:09;;;;;;;8.38;5.60;;;10.90;99.90;;;;;;5015177;28;20659;-65
2023/04/15 02:17:37;;;;;;;8.68;7.45;;;11.00;99.90;;;;;;5002704;28;20228;-67
2023/04/15 02:20:07;;;;;;;17.83;9.70;;;11.00;99.90;;;;;;5017407;28;20187;-65
2023/04/15 02:22:33;;;;;;;14.63;10.65;;;11.10;99.90;;;;;;4999057;28;20274;-65
2023/04/15 02:24:59;;;;;;;17.65;11.50;;;11.20;99.90;;;;;;5020843;28;20615;-64
2023/04/15 02:27:25;;;;;;;17.85;12.43;;;11.10;99.90;;;;;;5019676;28;20258;-65
2023/04/15 02:29:51;;;;;;;14.35;10.75;;;11.00;99.90;;;;;;5026962;28;20258;-65
2023/04/15 02:32:17;;;;;;;12.98;9.77;;;11.00;99.90;;;;;;5008358;28;20199;-65
2023/04/15 02:34:43;;;;;;;10.93;7.97;;;11.00;99.90;;;;;;5012555;28;20195;-65
2023/04/15 02:37:10;;;;;;;9.13;7.18;;;11.10;99.90;;;;;;5017312;28;20190;-65
2023/04/15 02:39:36;;;;;;;10.68;7.68;;;11.00;99.90;;;;;;5022796;28;20187;-65
2023/04/15 02:42:03;;;;;;;10.95;6.40;;;11.00;99.90;;;;;;4997941;28;20191;-65
2023/04/15 02:44:30;;;;;;;8.55;6.25;;;11.20;99.90;;;;;;5001896;28;20262;-65
2023/04/15 02:46:57;;;;;;;13.75;7.82;;;11.20;99.90;;;;;;5042635;28;20651;-65
2023/04/15 02:49:23;;;;;;;10.75;7.35;;;11.20;99.90;;;;;;5026841;28;20197;-65
2023/04/15 02:51:50;;;;;;;12.57;6.40;;;11.00;99.90;;;;;;5021359;28;20182;-65
2023/04/15 02:54:19;;;;;;;8.60;6.45;;;11.00;99.90;;;;;;5013750;28;20192;-65
2023/04/15 02:56:45;;;;;;;7.80;6.38;;;11.00;99.90;;;;;;5021385;28;20187;-65
2023/04/15 02:59:11;;;;;;;8.55;6.55;;;11.00;99.90;;;;;;5014634;28;20513;-65
2023/04/15 03:01:37;;;;;;;7.47;6.00;;;11.00;99.90;;;;;;5011384;28;20283;-65
2023/04/15 03:04:03;;;;;;;8.40;6.13;;;11.00;99.90;;;;;;5011168;28;20207;-67
2023/04/15 03:06:28;;;;;;;8.65;6.30;;;11.10;99.90;;;;;;5009878;28;20198;-65
2023/04/15 03:08:55;;;;;;;8.77;6.50;;;11.00;99.90;;;;;;5026636;28;20190;-65
2023/04/15 03:11:21;;;;;;;8.50;5.80;;;11.00;99.90;;;;;;4997247;28;20310;-65
2023/04/15 03:13:47;;;;;;;10.65;7.63;;;10.90;99.90;;;;;;5047367;28;20276;-65
2023/04/15 03:16:13;;;;;;;8.43;6.73;;;10.80;99.90;;;;;;5020263;28;20195;-65
2023/04/15 03:18:38;;;;;;;8.48;6.70;;;10.90;99.90;;;;;;5010219;28;20234;-65
2023/04/15 03:21:05;;;;;;;6.72;5.88;;;10.70;99.90;;;;;;5049913;28;20191;-65
2023/04/15 03:23:31;;;;;;;10.57;7.70;;;10.60;99.90;;;;;;5024125;28;20337;-65
2023/04/15 03:25:57;;;;;;;8.95;6.93;;;10.60;99.90;;;;;;5018896;28;20270;-65
2023/04/15 03:28:23;;;;;;;10.48;7.43;;;10.70;99.90;;;;;;5025172;28;20183;-65
2023/04/15 03:30:49;;;;;;;12.73;7.45;;;10.70;99.90;;;;;;5028065;28;20256;-65
2023/04/15 03:33:15;;;;;;;10.07;6.97;;;10.60;99.90;;;;;;5007720;28;20250;-65
2023/04/15 03:35:40;;;;;;;9.00;7.40;;;10.40;99.90;;;;;;5007940;28;20321;-65
2023/04/15 03:38:06;;;;;;;8.97;6.80;;;10.40;99.90;;;;;;5009499;28;20187;-65
2023/04/15 03:40:32;;;;;;;8.50;6.97;;;10.50;99.90;;;;;;5012626;28;20224;-65
2023/04/15 03:42:57;;;;;;;10.47;6.93;;;10.60;99.90;;;;;;5025372;28;20216;-65
2023/04/15 03:45:24;;;;;;;13.45;8.82;;;10.60;99.90;;;;;;5011266;28;20306;-66
2023/04/15 03:47:50;;;;;;;7.93;6.88;;;10.50;99.90;;;;;;5029664;28;20551;-65
2023/04/15 03:50:16;;;;;;;9.82;7.40;;;10.50;99.90;;;;;;5054150;28;20267;-65
2023/04/15 03:52:41;;;;;;;11.32;7.72;;;10.50;99.90;;;;;;5014440;28;20289;-65
2023/04/15 03:55:08;;;;;;;9.05;7.25;;;10.40;99.90;;;;;;5025908;28;20197;-65
2023/04/15 03:57:36;;;;;;;9.80;7.55;;;10.40;99.90;;;;;;5014859;28;20260;-65
2023/04/15 04:00:08;;;;;;;8.10;6.97;;;10.40;99.90;;;;;;5016790;28;20587;-65
2023/04/15 04:02:33;;;;;;;8.00;7.07;;;10.30;99.90;;;;;;5025753;28;20222;-65
2023/04/15 04:04:59;;;;;;;9.07;7.15;;;10.30;99.90;;;;;;5020195;28;20662;-65
2023/04/15 04:07:25;;;;;;;14.17;8.70;;;10.00;99.90;;;;;;5044998;28;20193;-65
2023/04/15 04:09:51;;;;;;;10.60;6.53;;;10.00;99.90;;;;;;5015345;28;20711;-65
2023/04/15 04:12:16;;;;;;;9.87;7.00;;;10.00;99.90;;;;;;5012600;28;20235;-65
2023/04/15 04:14:42;;;;;;;10.70;7.97;;;10.00;99.90;;;;;;5017446;28;20212;-65
2023/04/15 04:17:08;;;;;;;9.70;7.27;;;10.10;99.90;;;;;;5026961;28;20264;-65
2023/04/15 04:19:34;;;;;;;7.63;6.87;;;10.10;99.90;;;;;;5007496;28;20751;-65
2023/04/15 04:22:00;;;;;;;10.50;7.20;;;10.10;99.90;;;;;;5028516;28;20261;-65
2023/04/15 04:24:26;;;;;;;8.07;7.07;;;10.10;99.90;;;;;;5008205;28;20212;-65
2023/04/15 04:26:52;;;;;;;10.33;7.13;;;10.20;99.90;;;;;;5022415;28;20197;-65
2023/04/15 04:29:17;;;;;;;11.97;8.07;;;10.30;99.90;;;;;;5031049;28;20556;-65
2023/04/15 04:31:43;;;;;;;8.10;6.60;;;10.30;99.90;;;;;;5014977;28;20184;-65
2023/04/15 04:34:08;;;;;;;9.40;7.27;;;10.30;99.90;;;;;;5003177;28;20196;-65
2023/04/15 04:36:34;;;;;;;10.37;6.70;;;10.30;99.90;;;;;;5028196;28;20648;-67
2023/04/15 04:39:00;;;;;;;10.23;7.37;;;10.30;99.90;;;;;;5019699;28;20185;-65
2023/04/15 04:41:26;;;;;;;9.70;6.78;;;10.20;99.90;;;;;;5012607;28;20199;-65
2023/04/15 04:43:51;;;;;;;9.40;7.28;;;10.30;99.90;;;;;;5024102;28;20203;-65
2023/04/15 04:46:17;;;;;;;9.10;6.88;;;10.30;99.90;;;;;;5019265;28;20573;-65
2023/04/15 04:48:43;;;;;;;11.37;7.70;;;10.30;99.90;;;;;;5062881;28;20546;-65
2023/04/15 04:51:09;;;;;;;12.27;8.47;;;10.20;99.90;;;;;;5020106;28;20242;-65
2023/04/15 04:53:36;;;;;;;12.70;7.67;;;10.10;99.90;;;;;;5044081;28;20190;-65
2023/04/15 04:56:02;;;;;;;7.87;7.07;;;10.00;99.90;;;;;;5031073;28;20737;-65
2023/04/15 04:58:28;;;;;;;14.70;8.17;;;10.00;99.90;;;;;;5025328;28;20266;-65
2023/04/15 05:00:54;;;;;;;10.37;7.77;;;10.10;99.90;;;;;;5020756;28;20344;-65
2023/04/15 05:03:21;;;;;;;13.17;8.63;;;10.20;99.90;;;;;;5012486;28;20200;-65
2023/04/15 05:05:48;;;;;;;10.40;8.40;;;10.30;99.90;;;;;;5027745;28;20276;-65
2023/04/15 05:08:14;;;;;;;9.67;7.97;;;10.20;99.90;;;;;;5024369;28;20183;-65
2023/04/15 05:10:40;;;;;;;13.67;7.77;;;10.20;99.90;;;;;;5014413;28;20192;-65
2023/04/15 05:13:05;;;;;;;13.02;8.27;;;10.10;99.90;;;;;;5030647;28;20489;-66
2023/04/15 05:15:32;;;;;;;9.87;8.17;;;10.20;99.90;;;;;;5005930;28;20191;-65
2023/04/15 05:17:57;;;;;;;13.80;7.27;;;10.40;99.90;;;;;;5017566;28;20238;-65
2023/04/15 05:20:23;;;;;;;9.27;7.53;;;10.40;99.90;;;;;;5017509;28;20188;-65
2023/04/15 05:22:49;;;;;;;11.97;7.00;;;10.30;99.90;;;;;;5024160;28;20213;-65
2023/04/15 05:25:15;;;;;;;7.47;6.80;;;10.10;99.90;;;;;;5043444;28;20272;-65
2023/04/15 05:27:41;;;;;;;11.60;7.90;;;10.10;99.90;;;;;;5032578;28;20192;-66
2023/04/15 05:30:07;;;;;;;8.70;7.67;;;10.10;99.90;;;;;;5023255;28;20183;-65
2023/04/15 05:32:33;;;;;;;11.83;7.63;;;10.20;99.90;;;;;;5022177;28;20214;-67
2023/04/15 05:34:59;;;;;;;8.77;7.23;;;10.30;99.90;;;;;;5030801;28;20260;-65
2023/04/15 05:37:25;;;;;;;10.33;8.50;;;10.40;99.90;;;;;;5043016;28;20270;-65
2023/04/15 05:39:51;;;;;;;10.77;7.33;;;10.10;99.90;;;;;;5040253;28;20503;-65
2023/04/15 05:42:16;;;;;;;10.00;8.10;;;10.00;99.90;;;;;;5011937;28;20663;-67
2023/04/15 05:44:42;;;;;;;11.43;7.83;;;9.80;99.90;;;;;;5023528;28;20943;-65
2023/04/15 05:47:09;;;;;;;11.83;9.10;;;10.00;99.90;;;;;;5030174;28;20186;-65
2023/04/15 05:49:34;;;;;;;10.87;7.20;;;9.90;99.90;;;;;;5013998;28;20229;-65
2023/04/15 05:52:00;;;;;;;12.87;8.07;;;9.90;99.90;;;;;;5024488;28;20198;-65
2023/04/15 05:54:26;;;;;;;13.57;7.03;;;9.80;99.90;;;;;;5022259;28;20200;-65
2023/04/15 05:56:52;;;;;;;8.97;6.87;;;9.90;99.90;;;;;;5009655;28;20712;-65
2023/04/15 05:59:18;;;;;;;9.10;7.20;;;9.90;99.90;;;;;;4993632;28;20664;-65
2023/04/15 06:01:44;;;;;;;8.97;7.00;;;9.80;99.90;;;;;;5006601;28;20275;-65
2023/04/15 06:04:10;;;;;;;11.47;8.53;;;9.90;99.90;;;;;;4996900;28;20308;-65
2023/04/15 06:06:37;;;;;;;10.20;7.27;;;10.00;99.90;;;;;;5047957;28;20194;-65
2023/04/15 06:09:03;;;;;;;6.97;6.27;;;10.20;99.90;;;;;;5009447;28;20602;-64
2023/04/15 06:11:28;;;;;;;10.40;7.97;;;10.50;99.90;;;;;;5028476;28;20182;-64
2023/04/15 06:13:54;;;;;;;13.73;8.43;;;10.40;99.90;;;;;;5019439;28;20556;-64
2023/04/15 06:16:20;;;;;;;17.27;8.27;;;10.50;99.90;;;;;;5028492;28;20564;-64
2023/04/15 06:18:45;;;;;;;8.83;7.17;;;10.60;99.90;;;;;;5021602;28;20239;-65
2023/04/15 06:21:11;;;;;;;8.80;7.27;;;10.60;99.90;;;;;;5010920;28;20195;-64
2023/04/15 06:23:39;;;;;;;10.77;7.60;;;10.50;99.90;;;;;;5012026;28;20288;-64
2023/04/15 06:26:05;;;;;;;11.30;7.13;;;10.20;99.90;;;;;;5017225;28;20198;-65
2023/04/15 06:28:31;;;;;;;9.97;7.10;;;10.10;99.90;;;;;;5006124;28;20187;-64
2023/04/15 06:30:57;;;;;;;8.07;6.77;;;10.00;99.90;;;;;;5003108;28;20196;-64
2023/04/15 06:33:23;;;;;;;10.73;6.90;;;10.20;99.90;;;;;;5038763;28;20192;-65
2023/04/15 06:35:49;;;;;;;9.87;7.40;;;10.50;99.90;;;;;;4994320;28;20184;-65
2023/04/15 06:38:14;;;;;;;13.73;7.15;;;10.70;99.90;;;;;;5014428;28;20194;-65
2023/04/15 06:40:41;;;;;;;10.38;6.45;;;10.80;99.90;;;;;;4998256;28;20601;-65
2023/04/15 06:43:06;;;;;;;7.53;6.07;;;11.00;99.90;;;;;;5015752;28;20208;-66
2023/04/15 06:45:32;;;;;;;9.10;6.55;;;11.20;99.90;;;;;;5025919;28;20198;-65
2023/04/15 06:47:58;;;;;;;10.65;7.35;;;11.10;99.90;;;;;;5017318;28;20185;-65
2023/04/15 06:50:24;;;;;;;13.05;7.38;;;10.90;99.90;;;;;;5006542;28;20195;-64
2023/04/15 06:52:49;;;;;;;9.65;7.22;;;10.90;99.90;;;;;;5009374;28;20590;-64
2023/04/15 06:55:15;;;;;;;9.45;6.97;;;11.00;99.90;;;;;;5016161;28;20243;-65
2023/04/15 06:57:41;;;;;;;11.32;7.65;;;11.00;99.90;;;;;;4999917;28;20192;-65
2023/04/15 07:00:07;;;;;;;16.67;7.30;;;11.00;99.90;;;;;;5037875;28;20192;-66
2023/04/15 07:02:33;;;;;;;11.20;8.25;;;10.90;99.90;;;;;;5020633;28;20191;-65
2023/04/15 07:04:58;;;;;;;8.60;6.97;;;11.00;99.90;;;;;;5012998;28;20227;-65
2023/04/15 07:07:25;;;;;;;8.32;7.53;;;11.20;99.90;;;;;;5012644;28;20179;-65
2023/04/15 07:09:52;;;;;;;9.27;8.30;;;11.40;99.90;;;;;;4993600;28;20191;-65
2023/04/15 07:12:18;;;;;;;13.40;7.38;;;11.50;99.90;;;;;;5012849;28;20196;-68
2023/04/15 07:14:44;;;;;;;9.15;8.00;;;12.00;99.90;;;;;;5015917;28;20187;-64
2023/04/15 07:17:10;;;;;;;9.23;8.20;;;12.10;99.90;;;;;;5027339;28;20190;-65
2023/04/15 07:19:36;;;;;;;15.15;8.35;;;11.80;99.90;;;;;;5030916;28;20206;-65
2023/04/15 07:22:02;;;;;;;18.38;9.00;;;11.90;99.90;;;;;;5002977;28;20258;-65
2023/04/15 07:24:28;;;;;;;12.43;8.88;;;11.60;99.90;;;;;;5006664;28;20222;-65
2023/04/15 07:26:58;;;;;;;12.52;8.93;;;11.60;99.90;;;;;;5005514;28;20188;-65
2023/04/15 07:29:24;;;;;;;11.05;8.23;;;11.50;99.90;;;;;;5012939;28;20275;-65
2023/04/15 07:31:50;;;;;;;18.02;9.75;;;11.40;99.90;;;;;;5026379;28;20183;-65
2023/04/15 07:34:16;;;;;;;13.30;8.82;;;11.40;99.90;;;;;;5015039;28;20202;-64
2023/04/15 07:36:42;;;;;;;13.80;9.65;;;11.70;99.90;;;;;;5020594;28;20179;-64
2023/04/15 07:39:07;;;;;;;15.52;10.40;;;12.20;99.90;;;;;;5009052;28;20242;-65
2023/04/15 07:41:33;;;;;;;13.50;9.45;;;12.50;99.90;;;;;;5044307;28;20183;-65
2023/04/15 07:43:59;;;;;;;11.00;9.60;;;12.60;99.90;;;;;;5011511;28;20736;-64
2023/04/15 07:46:26;;;;;;;12.50;10.68;;;12.20;99.90;;;;;;5012915;28;20610;-65
2023/04/15 07:48:52;;;;;;;17.58;11.13;;;12.10;99.90;;;;;;5026444;28;20222;-65
2023/04/15 07:51:20;;;;;;;17.67;11.15;;;12.40;99.90;;;;;;5038850;28;20271;-65
2023/04/15 07:53:47;;;;;;;13.30;9.93;;;13.00;99.90;;;;;;5011928;28;20191;-64
2023/04/15 07:56:13;;;;;;;16.38;11.27;;;13.00;99.90;;;;;;5005923;28;20180;-65
2023/04/15 07:58:38;;;;;;;14.07;11.35;;;13.30;99.90;;;;;;5014194;28;20652;-65
2023/04/15 08:01:04;;;;;;;14.63;11.98;;;13.90;99.90;;;;;;5035587;28;20192;-68
2023/04/15 08:03:30;;;;;;;17.27;11.15;;;15.20;99.90;;;;;;4997671;28;20207;-68
2023/04/15 08:05:56;;;;;;;16.83;11.95;;;15.90;99.90;;;;;;5013620;28;20190;-72
2023/04/15 08:08:22;;;;;;;17.38;11.60;;;16.50;99.90;;;;;;5014194;28;20529;-69
2023/04/15 08:10:48;;;;;;;14.27;9.98;;;17.70;99.90;;;;;;5008541;28;20633;-69
2023/04/15 08:13:15;;;;;;;13.57;10.07;;;18.50;99.90;;;;;;5026630;28;20624;-69
2023/04/15 08:15:41;;;;;;;14.23;10.02;;;19.20;99.90;;;;;;5001836;28;20188;-68
2023/04/15 08:18:06;;;;;;;14.38;10.00;;;19.60;99.90;;;;;;5045945;28;20253;-67
2023/04/15 08:20:32;;;;;;;13.27;10.57;;;18.50;99.90;;;;;;5050680;28;20212;-68
2023/04/15 08:22:58;;;;;;;14.55;10.60;;;17.00;99.90;;;;;;5024437;28;20214;-69
2023/04/15 08:25:24;;;;;;;14.18;10.80;;;16.40;99.90;;;;;;5010585;28;20193;-70
2023/04/15 08:27:49;;;;;;;11.65;10.25;;;16.70;99.90;;;;;;5018485;28;20527;-70
2023/04/15 08:30:15;;;;;;;16.52;10.95;;;16.20;99.90;;;;;;5034718;28;20187;-70
2023/04/15 08:32:45;;;;;;;18.42;11.57;;;16.00;99.90;;;;;;5011802;28;20215;-69
2023/04/15 08:35:10;;;;;;;16.50;11.77;;;16.00;99.90;;;;;;5009831;28;20489;-69
2023/04/15 08:37:36;;;;;;;15.48;11.65;;;16.70;99.90;;;;;;5022325;28;20186;-66
2023/04/15 08:40:02;;;;;;;15.75;11.15;;;17.00;99.90;;;;;;5010124;28;20195;-67
2023/04/15 08:42:32;;;;;;;16.65;12.50;;;16.90;99.90;;;;;;5027696;28;20205;-67
2023/04/15 08:45:03;;;;;;;14.40;10.38;;;16.80;99.90;;;;;;5014264;28;20186;-68
2023/04/15 08:47:33;;;;;;;14.45;10.73;;;17.30;99.90;;;;;;5039000;28;20192;-69
2023/04/15 08:50:03;;;;;;;13.90;9.93;;;18.00;99.90;;;;;;5011741;28;20290;-70
2023/04/15 08:52:30;;;;;;;13.25;10.85;;;18.70;99.90;;;;;;5008219;28;20199;-71
2023/04/15 08:54:59;;;;;;;19.83;11.30;;;19.30;99.90;;;;;;5008546;28;20243;-69
2023/04/15 08:57:26;;;;;;;12.68;10.05;;;19.10;99.90;;;;;;5042893;28;20176;-69
2023/04/15 08:59:56;;;;;;;8.50;6.65;;;19.20;99.90;;;;;;5019678;28;20206;-67
2023/04/15 09:02:25;;;;;;;10.45;6.57;;;18.30;99.90;;;;;;5006912;28;20182;-68
2023/04/15 09:04:50;;;;;;;10.93;7.80;;;16.60;99.90;;;;;;5013705;28;20218;-70
2023/04/15 09:07:16;;;;;;;9.32;6.93;;;15.40;99.90;;;;;;5003924;28;20215;-68
2023/04/15 09:09:42;;;;;;;9.38;7.43;;;15.10;99.90;;;;;;5008715;28;20662;-69
2023/04/15 09:12:09;;;;;;;9.10;6.80;;;15.00;99.90;;;;;;5006129;28;20196;-71
2023/04/15 09:14:35;;;;;;;8.10;6.78;;;14.70;99.90;;;;;;5024305;28;20194;-70
2023/04/15 09:17:03;;;;;;;9.65;6.80;;;14.80;99.90;;;;;;5013750;28;20192;-69
2023/04/15 09:19:30;;;;;;;12.38;6.53;;;14.70;99.90;;;;;;5029041;28;20237;-69
2023/04/15 09:21:59;;;;;;;7.80;5.50;;;14.70;99.90;;;;;;5020668;28;20313;-69
2023/04/15 09:24:32;;;;;;;10.50;6.80;;;14.70;99.90;;;;;;5020195;28;20220;-68
2023/04/15 09:26:58;;;;;;;7.10;6.13;;;14.60;99.90;;;;;;5003325;28;20607;-66
2023/04/15 09:29:25;;;;;;;9.18;5.65;;;14.70;99.90;;;;;;5006792;28;20262;-68
2023/04/15 09:31:51;;;;;;;9.70;6.18;;;14.50;99.90;;;;;;5008646;28;20171;-68
2023/04/15 09:34:17;;;;;;;6.95;5.13;;;14.50;99.90;;;;;;5009313;28;20206;-68
2023/04/15 09:36:46;;;;;;;6.38;5.78;;;14.50;99.90;;;;;;4990571;28;20258;-68
2023/04/15 09:39:12;;;;;;;5.75;5.15;;;14.40;99.90;;;;;;5008025;28;20253;-68
2023/04/15 09:41:39;;;;;;;13.52;7.60;;;14.40;99.90;;;;;;5005902;28;20187;-68
2023/04/15 09:44:04;;;;;;;9.48;6.57;;;14.50;99.90;;;;;;5004037;28;20723;-66
2023/04/15 09:46:42;;;;;;;7.88;5.88;;;14.60;99.90;;;;;;4998614;28;20196;-69
2023/04/15 09:49:09;;;;;;;7.97;6.10;;;14.70;99.90;;;;;;5002614;28;20665;-68
2023/04/15 09:51:35;;;;;;;11.07;7.45;;;15.00;99.90;;;;;;5009597;28;20270;-67
2023/04/15 09:54:01;;;;;;;10.02;7.20;;;15.10;99.90;;;;;;5003743;28;20187;-69
2023/04/15 09:56:40;;;;;;;11.43;7.53;;;15.20;99.90;;;;;;5008895;28;20250;-71
2023/04/15 09:59:09;;;;;;;10.35;6.78;;;15.00;99.90;;;;;;5003995;28;20691;-69
2023/04/15 10:01:36;;;;;;;9.10;6.80;;;14.80;99.90;;;;;;5002043;28;20190;-69
2023/04/15 10:04:05;;;;;;;6.57;5.68;;;14.80;99.90;;;;;;5010536;28;20207;-69
2023/04/15 10:06:32;;;;;;;8.80;6.15;;;14.80;99.90;;;;;;5006367;28;20215;-67
2023/04/15 10:08:59;;;;;;;5.75;5.18;;;15.00;99.90;;;;;;5012064;28;20730;-71
2023/04/15 10:11:28;;;;;;;11.02;4.57;;;15.10;99.90;;;;;;5014707;28;20275;-67
2023/04/15 10:13:55;;;;;;;5.30;4.68;;;15.20;99.90;;;;;;5012594;28;20189;-69
2023/04/15 10:16:26;;;;;;;6.55;4.78;;;15.10;99.90;;;;;;5017766;28;20210;-70
2023/04/15 10:19:01;;;;;;;6.35;4.85;;;15.10;99.90;;;;;;5073312;28;21161;-72
2023/04/15 10:21:29;;;;;;;7.28;4.90;;;14.90;99.90;;;;;;5056968;28;20188;-72
2023/04/15 10:23:56;;;;;;;7.40;5.00;;;14.90;99.90;;;;;;5071041;28;20189;-70
2023/04/15 10:26:21;;;;;;;7.53;4.07;;;15.00;99.90;;;;;;5057395;28;20263;-70
2023/04/15 10:28:48;;;;;;;5.50;3.90;;;14.90;99.90;;;;;;5073053;28;20209;-71
2023/04/15 10:31:14;;;;;;;4.18;3.80;;;14.90;99.90;;;;;;5070776;28;20211;-70
2023/04/15 10:33:41;;;;;;;4.25;3.13;;;15.10;99.90;;;;;;5092596;28;20199;-73
2023/04/15 10:36:07;;;;;;;5.53;3.22;;;15.10;99.90;;;;;;5071287;28;20176;-75
2023/04/15 10:38:44;;;;;;;5.60;3.50;;;15.00;99.90;;;;;;5068511;28;20224;-70
2023/04/15 10:41:29;;;;;;;6.13;3.03;;;15.10;99.90;;;;;;5053799;28;20169;-70
2023/04/15 10:44:04;;;;;;;4.65;3.28;;;15.00;99.90;;;;;;5057091;28;20247;-70
2023/04/15 10:46:44;;;;;;;5.53;3.10;;;15.00;99.90;;;;;;5057414;28;20699;-68
2023/04/15 10:49:15;;;;;;;4.72;3.65;;;15.10;99.90;;;;;;5061473;28;20208;-70
2023/04/15 10:51:43;;;;;;;4.93;3.90;;;15.20;99.90;;;;;;5061973;28;20185;-70
2023/04/15 10:54:14;;;;;;;6.57;3.60;;;15.10;99.90;;;;;;5069050;28;20170;-70
2023/04/15 10:56:44;;;;;;;3.95;3.22;;;15.00;99.90;;;;;;5068738;28;20191;-69
2023/04/15 10:59:10;;;;;;;5.13;4.10;;;15.30;99.90;;;;;;5061698;28;20213;-70
2023/04/15 11:01:53;;;;;;;7.90;3.88;;;15.40;99.90;;;;;;5065486;28;20213;-69
2023/04/15 11:04:53;;;;;;;6.97;4.70;;;15.40;99.90;;;;;;5067538;28;20264;-70
2023/04/15 11:07:39;;;;;;;7.97;5.03;;;15.40;99.90;;;;;;5067839;28;20188;-64
2023/04/15 11:10:19;;;;;;;5.35;3.60;;;15.10;99.90;;;;;;5068808;28;20558;-65
2023/04/15 11:12:46;;;;;;;5.35;4.10;;;15.30;99.90;;;;;;5068508;28;20177;-64
2023/04/15 11:15:45;;;;;;;4.57;3.72;;;15.40;99.90;;;;;;5068669;28;20193;-64
2023/04/15 11:18:12;;;;;;;9.10;4.30;;;15.60;99.90;;;;;;5060100;28;20732;-66
2023/04/15 11:20:39;;;;;;;4.15;3.80;;;15.50;99.90;;;;;;5064937;28;20526;-66
2023/04/15 11:23:05;;;;;;;2.92;2.72;;;15.30;99.90;;;;;;5068191;28;20182;-64
2023/04/15 11:25:33;;;;;;;3.05;2.75;;;15.40;99.90;;;;;;5059672;28;20198;-66
2023/04/15 11:28:00;;;;;;;3.83;2.67;;;15.40;99.90;;;;;;5062052;28;20268;-63
2023/04/15 11:30:28;;;;;;;2.53;2.00;;;15.40;99.90;;;;;;5050055;28;20206;-65
2023/04/15 11:32:57;;;;;;;2.53;2.33;;;15.30;99.90;;;;;;5051231;28;20236;-64
2023/04/15 11:35:22;;;;;;;8.98;2.83;;;15.30;99.90;;;;;;5054576;28;20188;-65
2023/04/15 11:37:49;;;;;;;4.32;3.45;;;15.40;99.90;;;;;;5054782;28;20297;-66
2023/04/15 11:40:18;;;;;;;6.07;3.50;;;15.60;99.90;;;;;;5049125;28;20241;-65
2023/04/15 11:42:44;;;;;;;4.45;3.17;;;15.50;99.90;;;;;;5044898;28;20193;-65
2023/04/15 11:45:14;;;;;;;3.60;3.30;;;15.50;99.90;;;;;;5053114;28;20186;-64
2023/04/15 11:47:41;;;;;;;4.45;3.60;;;15.50;99.90;;;;;;5063888;28;20195;-65
2023/04/15 11:50:17;;;;;;;5.32;3.22;;;15.60;99.90;;;;;;5052074;28;20178;-65
2023/04/15 11:52:56;;;;;;;5.68;2.92;;;15.60;99.90;;;;;;5053541;28;20520;-62
2023/04/15 11:55:23;;;;;;;5.03;3.60;;;15.50;99.90;;;;;;5053855;28;20283;-64
2023/04/15 11:58:14;;;;;;;5.90;2.63;;;15.50;99.90;;;;;;5054530;28;20209;-63
2023/04/15 12:00:40;;;;;;;9.15;4.10;;;15.40;99.90;;;;;;5052263;28;20537;-63
2023/04/15 12:03:12;;;;;;;5.15;3.60;;;15.60;99.90;;;;;;5054302;28;20228;-62
2023/04/15 12:06:18;;;;;;;5.93;3.33;;;15.70;99.90;;;;;;5053836;28;20643;-64
2023/04/15 12:09:06;;;;;;;3.97;2.83;;;15.60;99.90;;;;;;5054213;28;20335;-64
2023/04/15 12:11:33;;;;;;;6.13;3.05;;;15.80;99.90;;;;;;5054282;28;20174;-64
2023/04/15 12:14:08;;;;;;;3.40;2.83;;;15.80;99.90;;;;;;5054537;28;20190;-64
2023/04/15 12:16:35;;;;;;;3.30;2.97;;;15.80;99.90;;;;;;5054231;28;20626;-64
2023/04/15 12:19:05;;;;;;;2.60;2.17;;;15.80;99.90;;;;;;5050470;28;20285;-63
2023/04/15 12:21:34;;;;;;;2.05;1.85;;;15.80;99.90;;;;;;5048391;28;20613;-64
2023/04/15 12:24:06;;;;;;;2.92;2.15;;;15.90;99.90;;;;;;5035189;28;20183;-64
2023/04/15 12:26:43;;;;;;;2.92;2.35;;;15.80;99.90;;;;;;5045129;28;20220;-64
2023/04/15 12:29:11;;;;;;;3.83;2.60;;;15.50;99.90;;;;;;5042923;28;20186;-63
2023/04/15 12:31:56;;;;;;;2.58;2.35;;;15.70;99.90;;;;;;5053947;28;20181;-72
2023/04/15 12:34:30;;;;;;;2.28;2.08;;;15.80;99.90;;;;;;5048279;28;20182;-66
2023/04/15 12:36:57;;;;;;;2.25;2.05;;;15.80;99.90;;;;;;5069120;28;20201;-66
2023/04/15 12:39:24;;;;;;;4.15;2.15;;;15.70;99.90;;;;;;5053907;28;20247;-65
2023/04/15 12:41:51;;;;;;;3.58;2.08;;;15.70;99.90;;;;;;4694630;28;9999903;-67
2023/04/15 12:44:17;;;;;;;5.40;3.28;;;15.70;99.90;;;;;;5044788;28;20264;-67